createdAt,value
2024-01-12T00:01:11.035Z,10.80
2024-01-12T00:03:37.963Z,11.48
2024-01-12T00:06:06.226Z,11.02
2024-01-12T00:08:34.210Z,10.93
2024-01-12T00:11:01.074Z,10.70
2024-01-12T00:13:27.772Z,9.93
2024-01-12T00:15:54.471Z,11.07
2024-01-12T00:18:21.452Z,10.43
2024-01-12T00:20:48.268Z,11.25
2024-01-12T00:23:15.088Z,10.63
2024-01-12T00:25:42.332Z,10.27
2024-01-12T00:28:12.295Z,11.27
2024-01-12T00:30:40.732Z,10.60
2024-01-12T00:33:07.637Z,11.32
2024-01-12T00:35:34.827Z,11.57
2024-01-12T00:38:01.576Z,11.73
2024-01-12T00:40:28.324Z,11.20
2024-01-12T00:42:55.055Z,12.15
2024-01-12T00:45:21.772Z,11.07
2024-01-12T00:47:48.817Z,12.18
2024-01-12T00:50:15.883Z,12.10
2024-01-12T00:52:42.679Z,11.43
2024-01-12T00:55:09.780Z,11.48
2024-01-12T00:57:36.569Z,11.75
2024-01-12T01:00:05.214Z,11.77
2024-01-12T01:02:32.175Z,11.65
2024-01-12T01:04:58.906Z,11.45
2024-01-12T01:07:25.611Z,11.15
2024-01-12T01:09:52.342Z,11.80
2024-01-12T01:12:19.386Z,10.85
2024-01-12T01:14:46.244Z,10.68
2024-01-12T01:17:13.710Z,10.32
2024-01-12T01:19:40.553Z,9.90
2024-01-12T01:22:07.252Z,11.50
2024-01-12T01:24:33.936Z,10.57
2024-01-12T01:27:00.909Z,10.68
2024-01-12T01:29:27.630Z,10.55
2024-01-12T01:31:54.394Z,10.50
2024-01-12T01:34:21.107Z,10.82
2024-01-12T01:36:47.949Z,11.18
2024-01-12T01:39:15.492Z,10.57
2024-01-12T01:41:42.340Z,10.57
2024-01-12T01:44:09.131Z,10.55
2024-01-12T01:46:36.469Z,10.75
2024-01-12T01:49:03.306Z,10.23
2024-01-12T01:51:30.271Z,10.10
2024-01-12T01:53:57.026Z,10.07
2024-01-12T01:56:24.173Z,10.38
2024-01-12T01:58:51.569Z,9.32
2024-01-12T02:01:19.279Z,10.43
2024-01-12T02:03:47.676Z,9.85
2024-01-12T02:06:14.936Z,10.57
2024-01-12T02:08:42.329Z,9.88
2024-01-12T02:11:09.370Z,10.68
2024-01-12T02:13:36.047Z,10.25
2024-01-12T02:16:04.780Z,11.07
2024-01-12T02:21:00.227Z,9.85
2024-01-12T02:23:27.097Z,10.10
2024-01-12T02:25:54.078Z,10.20
2024-01-12T02:28:20.970Z,9.88
2024-01-12T02:30:48.111Z,9.77
2024-01-12T02:33:15.116Z,10.27
2024-01-12T02:35:41.981Z,9.70
2024-01-12T02:38:08.719Z,9.55
2024-01-12T02:40:35.368Z,10.20
2024-01-12T02:43:03.092Z,9.50
2024-01-12T02:45:29.904Z,10.52
2024-01-12T02:47:56.597Z,10.05
2024-01-12T02:50:24.176Z,9.88
2024-01-12T02:52:50.938Z,9.57
2024-01-12T02:55:17.869Z,9.63
2024-01-12T02:57:44.856Z,9.13
2024-01-12T03:00:12.251Z,10.02
2024-01-12T03:02:39.175Z,9.60
2024-01-12T03:05:06.466Z,8.65
2024-01-12T03:07:33.256Z,9.63
2024-01-12T03:10:00.508Z,10.20
2024-01-12T03:12:27.361Z,9.07
2024-01-12T03:14:54.161Z,9.07
2024-01-12T03:17:21.920Z,9.40
2024-01-12T03:19:48.801Z,9.57
2024-01-12T03:22:15.473Z,9.55
2024-01-12T03:24:42.205Z,9.63
2024-01-12T03:27:09.044Z,9.13
2024-01-12T03:29:35.955Z,8.52
2024-01-12T03:32:02.650Z,8.85
2024-01-12T03:34:29.514Z,8.98
2024-01-12T03:36:56.193Z,8.63
2024-01-12T03:39:22.872Z,9.02
2024-01-12T03:41:49.584Z,9.07
2024-01-12T03:44:16.476Z,8.43
2024-01-12T03:46:43.193Z,9.45
2024-01-12T03:49:10.120Z,9.65
2024-01-12T03:51:36.865Z,10.20
2024-01-12T03:54:04.050Z,8.48
2024-01-12T03:56:30.758Z,8.73
2024-01-12T03:58:57.749Z,8.90
2024-01-12T04:01:24.461Z,8.15
2024-01-12T04:03:51.454Z,8.45
2024-01-12T04:06:20.330Z,8.20
2024-01-12T04:08:47.262Z,8.73
2024-01-12T04:11:23.902Z,8.10
2024-01-12T04:13:50.987Z,8.73
2024-01-12T04:16:17.725Z,8.20
2024-01-12T04:18:44.762Z,8.38
2024-01-12T04:21:12.077Z,9.10
2024-01-12T04:23:39.422Z,8.70
2024-01-12T04:26:09.438Z,8.18
2024-01-12T04:28:36.296Z,6.68
2024-01-12T04:31:03.843Z,8.98
2024-01-12T04:33:31.996Z,9.43
2024-01-12T04:35:59.679Z,8.68
2024-01-12T04:38:27.934Z,8.23
2024-01-12T04:40:55.119Z,8.57
2024-01-12T04:43:21.898Z,8.13
2024-01-12T04:45:48.716Z,8.40
2024-01-12T04:48:15.516Z,8.57
2024-01-12T04:50:42.354Z,8.65
2024-01-12T04:53:09.092Z,8.85
2024-01-12T04:55:35.724Z,8.75
2024-01-12T04:58:04.247Z,8.23
2024-01-12T05:00:31.466Z,8.27
2024-01-12T05:02:58.658Z,8.48
2024-01-12T05:05:25.474Z,7.93
2024-01-12T05:07:52.303Z,8.88
2024-01-12T05:10:19.047Z,7.85
2024-01-12T05:12:45.862Z,7.93
2024-01-12T05:15:12.701Z,7.68
2024-01-12T05:17:39.482Z,8.50
2024-01-12T05:20:08.607Z,8.35
2024-01-12T05:22:37.015Z,7.60
2024-01-12T05:25:07.332Z,7.88
2024-01-12T05:27:34.207Z,7.80
2024-01-12T05:30:03.775Z,7.15
2024-01-12T05:32:31.532Z,7.43
2024-01-12T05:34:58.767Z,7.40
2024-01-12T05:37:25.671Z,8.05
2024-01-12T05:39:52.616Z,7.57
2024-01-12T05:42:19.287Z,7.30
2024-01-12T05:44:46.007Z,6.63
2024-01-12T05:47:13.614Z,7.45
2024-01-12T05:49:40.418Z,7.25
2024-01-12T05:52:07.199Z,7.03
2024-01-12T05:54:33.918Z,6.78
2024-01-12T05:57:00.953Z,7.35
2024-01-12T05:59:27.748Z,6.90
2024-01-12T06:01:55.434Z,6.50
2024-01-12T06:04:22.191Z,6.90
2024-01-12T06:06:49.943Z,6.10
2024-01-12T06:09:16.881Z,6.35
2024-01-12T06:11:44.712Z,6.22
2024-01-12T06:14:11.888Z,5.70
2024-01-12T06:16:39.142Z,6.35
2024-01-12T06:19:06.156Z,5.78
2024-01-12T06:21:33.093Z,6.53
2024-01-12T06:23:59.966Z,5.97
2024-01-12T06:26:26.995Z,6.18
2024-01-12T06:28:53.805Z,5.82
2024-01-12T06:31:20.537Z,5.53
2024-01-12T06:33:47.288Z,5.60
2024-01-12T06:36:14.201Z,6.07
2024-01-12T06:38:40.962Z,5.78
2024-01-12T06:41:07.852Z,5.93
2024-01-12T06:43:34.623Z,5.72
2024-01-12T06:46:01.312Z,5.95
2024-01-12T06:48:28.194Z,6.15
2024-01-12T06:50:55.034Z,5.30
2024-01-12T06:53:21.840Z,6.10
2024-01-12T06:55:48.743Z,5.75
2024-01-12T06:58:15.510Z,6.15
2024-01-12T07:00:42.305Z,6.47
2024-01-12T07:03:09.408Z,6.57
2024-01-12T07:05:36.298Z,6.78
2024-01-12T07:08:03.023Z,6.70
2024-01-12T07:10:29.728Z,6.80
2024-01-12T07:12:56.460Z,7.22
2024-01-12T07:15:23.125Z,6.88
2024-01-12T07:17:52.769Z,7.05
2024-01-12T07:20:20.306Z,7.47
2024-01-12T07:22:47.240Z,6.72
2024-01-12T07:25:14.019Z,6.78
2024-01-12T07:27:42.898Z,7.03
2024-01-12T07:30:10.677Z,7.15
2024-01-12T07:32:37.694Z,6.63
2024-01-12T07:35:04.963Z,7.70
2024-01-12T07:37:32.119Z,7.25
2024-01-12T07:39:58.843Z,7.05
2024-01-12T07:42:25.542Z,7.00
2024-01-12T07:44:53.173Z,7.18
2024-01-12T07:47:19.928Z,7.72
2024-01-12T07:49:46.777Z,7.55
2024-01-12T07:52:17.890Z,7.68
2024-01-12T07:54:46.196Z,7.60
2024-01-12T07:57:12.907Z,7.63
2024-01-12T07:59:39.740Z,7.38
2024-01-12T08:02:06.468Z,6.90
2024-01-12T08:04:33.328Z,7.70
2024-01-12T08:07:00.281Z,7.72
2024-01-12T08:09:27.090Z,7.93
2024-01-12T08:11:53.841Z,7.38
2024-01-12T08:14:20.562Z,7.88
2024-01-12T08:16:48.421Z,7.80
2024-01-12T08:19:15.098Z,7.22
2024-01-12T08:21:49.373Z,7.40
2024-01-12T08:24:21.997Z,7.60
2024-01-12T08:26:49.055Z,6.97
2024-01-12T08:29:15.923Z,7.28
2024-01-12T08:31:43.610Z,6.97
2024-01-12T08:34:10.928Z,7.13
2024-01-12T08:36:37.868Z,6.57
2024-01-12T08:39:04.987Z,7.03
2024-01-12T08:41:32.269Z,5.97
2024-01-12T08:43:59.048Z,6.25
2024-01-12T08:46:25.760Z,6.05
2024-01-12T08:48:53.945Z,6.43
2024-01-12T08:51:21.071Z,6.43
2024-01-12T08:53:47.812Z,6.35
2024-01-12T08:56:14.643Z,6.32
2024-01-12T08:58:41.354Z,6.35
2024-01-12T09:01:08.124Z,5.75
2024-01-12T09:03:35.128Z,6.00
2024-01-12T09:06:02.133Z,5.70
2024-01-12T09:08:29.531Z,5.95
2024-01-12T09:10:56.252Z,6.57
2024-01-12T09:13:23.070Z,6.75
2024-01-12T09:15:49.691Z,5.82
2024-01-12T09:18:16.538Z,7.28
2024-01-12T09:20:43.373Z,7.45
2024-01-12T09:23:10.304Z,6.35
2024-01-12T09:25:37.085Z,7.05
2024-01-12T09:28:04.017Z,6.38
2024-01-12T09:30:30.810Z,6.97
2024-01-12T09:32:57.725Z,7.82
2024-01-12T09:35:24.978Z,6.18
2024-01-12T09:37:51.775Z,6.45
2024-01-12T09:40:19.026Z,6.95
2024-01-12T09:42:50.120Z,7.65
2024-01-12T09:45:22.518Z,7.53
2024-01-12T09:47:52.261Z,7.15
2024-01-12T09:50:23.363Z,6.90
2024-01-12T09:52:51.129Z,6.85
2024-01-12T09:55:18.239Z,6.65
2024-01-12T09:57:48.360Z,6.63
2024-01-12T10:00:16.235Z,6.07
2024-01-12T10:02:43.433Z,5.85
2024-01-12T10:05:10.614Z,5.60
2024-01-12T10:07:39.086Z,5.13
2024-01-12T10:10:07.407Z,5.53
2024-01-12T10:12:34.081Z,4.88
2024-01-12T10:15:05.336Z,4.88
2024-01-12T10:17:33.212Z,4.55
2024-01-12T10:20:00.166Z,4.28
2024-01-12T10:22:27.942Z,4.55
2024-01-12T10:25:02.435Z,4.47
2024-01-12T10:27:29.249Z,4.18
2024-01-12T10:29:59.616Z,4.38
2024-01-12T10:34:54.756Z,3.97
2024-01-12T10:37:22.272Z,4.97
2024-01-12T10:39:50.682Z,4.50
2024-01-12T10:42:18.836Z,4.93
2024-01-12T10:44:46.671Z,5.38
2024-01-12T10:47:23.111Z,4.43
2024-01-12T10:50:09.889Z,5.53
2024-01-12T10:53:01.016Z,5.00
2024-01-12T10:55:35.228Z,5.60
2024-01-12T10:58:03.639Z,6.55
2024-01-12T11:00:34.304Z,6.55
2024-01-12T11:03:02.054Z,6.72
2024-01-12T11:05:29.845Z,7.28
2024-01-12T11:08:00.653Z,7.28
2024-01-12T11:10:29.186Z,7.10
2024-01-12T11:12:59.470Z,7.78
2024-01-12T11:15:27.808Z,7.72
2024-01-12T11:17:55.146Z,8.52
2024-01-12T11:20:23.099Z,8.05
2024-01-12T11:22:50.954Z,8.10
2024-01-12T11:25:20.590Z,7.18
2024-01-12T11:27:52.294Z,8.70
2024-01-12T11:30:21.555Z,7.25
2024-01-12T11:32:49.367Z,6.75
2024-01-12T11:35:22.318Z,5.43
2024-01-12T11:38:03.812Z,5.13
2024-01-12T11:40:30.562Z,4.75
2024-01-12T11:43:00.068Z,4.85
2024-01-12T11:45:28.127Z,5.00
2024-01-12T11:47:57.598Z,5.00
2024-01-12T11:50:28.757Z,3.92
2024-01-12T11:53:00.026Z,3.92
2024-01-12T11:55:26.847Z,4.05
2024-01-12T11:57:55.019Z,5.10
2024-01-12T12:00:24.363Z,4.82
2024-01-12T12:02:55.298Z,4.25
2024-01-12T12:05:24.298Z,4.80
2024-01-12T12:07:51.269Z,4.68
2024-01-12T12:10:23.474Z,5.28
2024-01-12T12:12:56.327Z,4.10
2024-01-12T12:15:25.898Z,4.90
2024-01-12T12:17:55.568Z,4.70
2024-01-12T12:20:24.209Z,4.35
2024-01-12T12:22:51.086Z,4.50
2024-01-12T12:25:18.334Z,5.28
2024-01-12T12:27:47.754Z,5.07
2024-01-12T12:30:16.867Z,5.30
2024-01-12T12:32:46.419Z,5.47
2024-01-12T12:35:21.187Z,6.07
2024-01-12T12:37:48.892Z,6.07
2024-01-12T12:40:17.652Z,5.68
2024-01-12T12:42:46.236Z,6.00
2024-01-12T12:45:13.744Z,5.72
2024-01-12T12:47:41.110Z,5.53
2024-01-12T12:50:12.716Z,6.18
2024-01-12T12:52:40.984Z,6.68
2024-01-12T12:55:08.651Z,5.95
2024-01-12T12:57:36.030Z,5.95
2024-01-12T13:00:05.644Z,6.75
2024-01-12T13:02:35.243Z,6.73
2024-01-12T13:05:03.506Z,7.22
2024-01-12T13:07:30.625Z,7.05
2024-01-12T13:09:59.192Z,7.10
2024-01-12T13:12:27.857Z,8.80
2024-01-12T13:14:54.737Z,8.35
2024-01-12T13:17:22.565Z,7.90
2024-01-12T13:19:49.598Z,8.38
2024-01-12T13:22:16.625Z,6.97
2024-01-12T13:24:43.288Z,7.70
2024-01-12T13:27:10.534Z,8.55
2024-01-12T13:29:37.367Z,7.20
2024-01-12T13:32:04.487Z,8.32
2024-01-12T13:34:31.937Z,7.53
2024-01-12T13:37:02.931Z,7.28
2024-01-12T13:39:30.156Z,7.72
2024-01-12T13:41:57.418Z,8.82
2024-01-12T13:44:24.316Z,8.15
2024-01-12T13:46:51.042Z,8.25
2024-01-12T13:49:18.016Z,7.45
2024-01-12T13:51:45.789Z,7.85
2024-01-12T13:54:15.823Z,7.50
2024-01-12T13:56:42.977Z,7.88
2024-01-12T13:59:10.987Z,8.32
2024-01-12T14:01:38.996Z,7.90
2024-01-12T14:04:06.964Z,7.40
2024-01-12T14:06:37.410Z,7.60
2024-01-12T14:09:06.421Z,6.90
2024-01-12T14:11:36.648Z,7.53
2024-01-12T14:14:03.971Z,7.22
2024-01-12T14:16:30.968Z,6.68
2024-01-12T14:18:57.892Z,7.38
2024-01-12T14:21:24.673Z,6.72
2024-01-12T14:23:52.052Z,6.85
2024-01-12T14:26:18.871Z,6.10
2024-01-12T14:28:46.702Z,6.43
2024-01-12T14:31:13.625Z,5.63
2024-01-12T14:33:40.627Z,6.95
2024-01-12T14:36:08.083Z,8.00
2024-01-12T14:38:35.316Z,8.88
2024-01-12T14:41:02.283Z,8.15
2024-01-12T14:43:29.142Z,9.10
2024-01-12T14:45:56.767Z,9.40
2024-01-12T14:48:24.287Z,8.55
2024-01-12T14:50:52.941Z,9.20
2024-01-12T14:53:19.878Z,10.88
2024-01-12T14:55:46.712Z,9.77
2024-01-12T14:58:13.550Z,10.10
2024-01-12T15:00:40.603Z,9.93
2024-01-12T15:03:07.369Z,10.98
2024-01-12T15:05:35.600Z,11.02
2024-01-12T15:08:03.631Z,10.38
2024-01-12T15:10:30.538Z,10.85
2024-01-12T15:12:57.368Z,10.65
2024-01-12T15:15:24.149Z,9.85
2024-01-12T15:17:51.017Z,9.85
2024-01-12T15:20:17.797Z,10.00
2024-01-12T15:22:44.540Z,10.25
2024-01-12T15:25:11.184Z,9.65
2024-01-12T15:27:37.829Z,9.63
2024-01-12T15:30:08.314Z,7.90
2024-01-12T15:32:35.398Z,8.20
2024-01-12T15:35:02.609Z,8.73
2024-01-12T15:37:29.380Z,8.10
2024-01-12T15:39:56.848Z,7.32
2024-01-12T15:42:32.335Z,7.15
2024-01-12T15:45:02.850Z,7.55
2024-01-12T15:47:29.675Z,7.80
2024-01-12T15:49:56.459Z,7.82
2024-01-12T15:52:23.245Z,7.57
2024-01-12T15:54:50.210Z,6.82
2024-01-12T15:57:16.964Z,8.23
2024-01-12T15:59:43.797Z,7.63
2024-01-12T16:02:10.701Z,8.98
2024-01-12T16:04:38.548Z,8.40
2024-01-12T16:07:05.812Z,7.85
2024-01-12T16:09:36.853Z,7.47
2024-01-12T16:12:04.382Z,7.43
2024-01-12T16:14:39.327Z,8.63
2024-01-12T16:17:06.413Z,9.27
2024-01-12T16:19:33.379Z,9.52
2024-01-12T16:22:01.230Z,9.60
2024-01-12T16:24:28.963Z,9.02
2024-01-12T16:26:55.658Z,9.32
2024-01-12T16:29:22.592Z,10.75
2024-01-12T16:31:49.241Z,10.02
2024-01-12T16:34:16.150Z,11.00
2024-01-12T16:36:43.085Z,10.73
2024-01-12T16:39:09.848Z,11.85
2024-01-12T16:41:36.670Z,10.80
2024-01-12T16:44:03.500Z,11.82
2024-01-12T16:46:30.197Z,11.88
2024-01-12T16:48:57.262Z,11.73
2024-01-12T16:51:24.052Z,13.57
2024-01-12T16:53:50.778Z,13.40
2024-01-12T16:56:17.568Z,13.82
2024-01-12T16:58:44.333Z,13.57
2024-01-12T17:01:11.118Z,12.35
2024-01-12T17:03:38.078Z,11.63
2024-01-12T17:06:05.001Z,12.07
2024-01-12T17:08:31.858Z,12.88
2024-01-12T17:10:58.585Z,13.13
2024-01-12T17:13:25.198Z,13.25
2024-01-12T17:15:51.894Z,11.70
2024-01-12T17:18:22.764Z,12.68
2024-01-12T17:20:55.773Z,12.10
2024-01-12T17:23:23.090Z,10.82
2024-01-12T17:25:49.813Z,10.85
2024-01-12T17:28:16.645Z,11.48
2024-01-12T17:30:44.735Z,11.07
2024-01-12T17:33:12.020Z,11.50
2024-01-12T17:35:39.060Z,11.70
2024-01-12T17:38:07.167Z,9.63
2024-01-12T17:40:33.923Z,11.18
2024-01-12T17:43:00.643Z,10.13
2024-01-12T17:45:28.626Z,10.32
2024-01-12T17:47:56.677Z,9.88
2024-01-12T17:50:23.814Z,10.82
2024-01-12T17:52:50.527Z,10.02
2024-01-12T17:55:17.245Z,9.98
2024-01-12T17:57:44.007Z,10.60
2024-01-12T18:00:12.047Z,9.07
2024-01-12T18:02:39.557Z,8.23
2024-01-12T18:05:06.573Z,9.35
2024-01-12T18:07:33.279Z,9.75
2024-01-12T18:09:59.894Z,9.05
2024-01-12T18:12:27.546Z,8.55
2024-01-12T18:14:54.226Z,8.55
2024-01-12T18:17:20.935Z,8.98
2024-01-12T18:19:48.846Z,8.95
2024-01-12T18:22:15.738Z,8.77
2024-01-12T18:24:47.491Z,7.95
2024-01-12T18:27:15.012Z,8.30
2024-01-12T18:29:41.783Z,9.15
2024-01-12T18:32:08.708Z,8.70
2024-01-12T18:34:35.758Z,8.98
2024-01-12T18:37:02.874Z,8.57
2024-01-12T18:39:29.610Z,10.18
2024-01-12T18:41:56.393Z,8.05
2024-01-12T18:44:23.164Z,9.43
2024-01-12T18:46:49.836Z,7.80
2024-01-12T18:49:16.613Z,8.18
2024-01-12T18:51:43.562Z,8.38
2024-01-12T18:54:10.831Z,8.88
2024-01-12T18:56:37.680Z,8.45
2024-01-12T18:59:04.434Z,8.57
2024-01-12T19:01:34.168Z,8.70
2024-01-12T19:04:03.331Z,10.15
2024-01-12T19:06:29.998Z,9.27
2024-01-12T19:08:56.745Z,9.07
2024-01-12T19:11:23.434Z,9.75
2024-01-12T19:13:52.444Z,8.60
2024-01-12T19:16:19.133Z,9.30
2024-01-12T19:18:45.835Z,10.20
2024-01-12T19:21:12.597Z,9.88
2024-01-12T19:23:39.369Z,9.73
2024-01-12T19:26:08.134Z,10.13
2024-01-12T19:28:34.831Z,9.85
2024-01-12T19:31:01.588Z,9.80
2024-01-12T19:33:28.529Z,10.15
2024-01-12T19:35:55.301Z,9.38
2024-01-12T19:38:22.646Z,9.70
2024-01-12T19:40:49.260Z,9.57
2024-01-12T19:43:15.936Z,10.48
2024-01-12T19:45:42.555Z,10.30
2024-01-12T19:48:09.418Z,10.25
2024-01-12T19:50:36.250Z,10.05
2024-01-12T19:53:02.962Z,10.65
2024-01-12T19:55:29.634Z,10.27
2024-01-12T19:57:56.834Z,11.43
2024-01-12T20:00:23.679Z,10.32
2024-01-12T20:02:50.528Z,10.20
2024-01-12T20:05:17.193Z,11.25
2024-01-12T20:07:43.826Z,11.25
2024-01-12T20:10:10.548Z,11.48
2024-01-12T20:12:37.258Z,11.48
2024-01-12T20:15:04.555Z,11.35
2024-01-12T20:17:31.690Z,13.15
2024-01-12T20:19:58.696Z,11.60
2024-01-12T20:22:25.417Z,13.13
2024-01-12T20:24:52.985Z,11.45
2024-01-12T20:27:19.796Z,12.18
2024-01-12T20:29:46.721Z,12.48
2024-01-12T20:32:13.435Z,11.85
2024-01-12T20:34:40.410Z,12.55
2024-01-12T20:37:09.105Z,11.75
2024-01-12T20:39:35.761Z,12.32
2024-01-12T20:42:02.627Z,11.23
2024-01-12T20:44:29.397Z,11.05
2024-01-12T20:46:56.119Z,10.88
2024-01-12T20:49:22.939Z,11.27
2024-01-12T20:51:52.414Z,9.70
2024-01-12T20:54:19.301Z,11.43
2024-01-12T20:56:46.021Z,10.57
2024-01-12T20:59:14.885Z,10.77
2024-01-12T21:01:41.743Z,10.20
2024-01-12T21:04:08.620Z,9.35
2024-01-12T21:06:35.437Z,10.15
2024-01-12T21:09:02.257Z,10.38
2024-01-12T21:11:29.227Z,9.85
2024-01-12T21:13:55.967Z,10.23
2024-01-12T21:16:22.677Z,9.85
2024-01-12T21:18:49.402Z,9.75
2024-01-12T21:21:16.315Z,10.07
2024-01-12T21:23:43.240Z,10.40
2024-01-12T21:26:09.888Z,10.60
2024-01-12T21:28:36.658Z,10.40
2024-01-12T21:31:03.760Z,10.25
2024-01-12T21:33:30.664Z,9.93
2024-01-12T21:35:57.513Z,9.30
2024-01-12T21:38:24.287Z,9.60
2024-01-12T21:40:51.069Z,10.65
2024-01-12T21:43:17.907Z,10.10
2024-01-12T21:45:45.217Z,8.93
2024-01-12T21:48:12.393Z,9.55
2024-01-12T21:50:41.115Z,10.00
2024-01-12T21:53:08.276Z,9.55
2024-01-12T21:55:35.003Z,9.13
2024-01-12T21:58:06.165Z,10.00
2024-01-12T22:00:34.558Z,9.73
2024-01-12T22:03:01.924Z,10.35
2024-01-12T22:05:28.871Z,9.32
2024-01-12T22:07:55.610Z,9.25
2024-01-12T22:10:22.295Z,8.77
2024-01-12T22:12:50.750Z,9.00
2024-01-12T22:15:17.651Z,8.55
2024-01-12T22:17:44.493Z,9.40
2024-01-12T22:20:14.269Z,8.82
2024-01-12T22:22:41.181Z,7.22
2024-01-12T22:25:08.406Z,9.05
2024-01-12T22:27:37.096Z,8.70
2024-01-12T22:30:04.295Z,9.07
2024-01-12T22:32:31.370Z,9.25
2024-01-12T22:34:58.140Z,9.02
2024-01-12T22:37:24.916Z,10.00
2024-01-12T22:39:51.814Z,9.38
2024-01-12T22:42:18.530Z,8.45
2024-01-12T22:44:45.287Z,10.07
2024-01-12T22:47:12.060Z,9.48
2024-01-12T22:49:39.008Z,10.07
2024-01-12T22:52:06.772Z,9.65
2024-01-12T22:54:34.029Z,9.32
2024-01-12T22:57:01.453Z,9.52
2024-01-12T22:59:28.305Z,10.60
2024-01-12T23:01:55.072Z,10.30
2024-01-12T23:04:22.001Z,10.10
2024-01-12T23:06:48.846Z,10.32
2024-01-12T23:09:15.672Z,9.63
2024-01-12T23:11:42.449Z,10.00
2024-01-12T23:14:09.195Z,10.25
2024-01-12T23:16:35.915Z,9.52
2024-01-12T23:19:03.146Z,11.55
2024-01-12T23:21:30.242Z,10.25
2024-01-12T23:23:56.900Z,9.75
2024-01-12T23:26:25.739Z,10.13
2024-01-12T23:28:52.456Z,9.55
2024-01-12T23:31:20.521Z,9.52
2024-01-12T23:33:47.700Z,9.60
2024-01-12T23:36:14.822Z,9.52
2024-01-12T23:38:41.712Z,8.90
2024-01-12T23:41:08.504Z,9.45
2024-01-12T23:43:35.110Z,9.52
2024-01-12T23:46:01.880Z,9.07
2024-01-12T23:48:34.614Z,8.93
2024-01-12T23:51:05.958Z,9.15
2024-01-12T23:53:32.950Z,9.30
2024-01-12T23:55:59.745Z,8.52
2024-01-12T23:58:30.620Z,8.60
